createdAt,value
2023-02-09T00:01:09.909Z,92.47
2023-02-09T00:03:57.634Z,92.53
2023-02-09T00:06:44.038Z,92.47
2023-02-09T00:09:31.056Z,92.26
2023-02-09T00:12:37.526Z,92.33
2023-02-09T00:15:23.945Z,92.06
2023-02-09T00:18:10.642Z,92.06
2023-02-09T00:21:04.038Z,92.03
2023-02-09T00:23:50.770Z,91.90
2023-02-09T00:26:37.629Z,92.40
2023-02-09T00:29:24.344Z,92.65
2023-02-09T00:32:10.907Z,92.33
2023-02-09T00:34:57.784Z,92.57
2023-02-09T00:37:44.419Z,92.47
2023-02-09T00:40:30.920Z,92.41
2023-02-09T00:43:17.763Z,92.45
2023-02-09T00:46:04.862Z,92.33
2023-02-09T00:48:51.605Z,92.19
2023-02-09T00:51:39.514Z,92.39
2023-02-09T00:54:26.085Z,92.25
2023-02-09T00:57:14.147Z,92.17
2023-02-09T01:00:00.453Z,92.26
2023-02-09T01:02:47.830Z,92.43
2023-02-09T01:05:34.559Z,92.55
2023-02-09T01:08:21.063Z,92.73
2023-02-09T01:11:09.949Z,92.93
2023-02-09T01:13:58.792Z,93.33
2023-02-09T01:16:45.355Z,93.12
2023-02-09T01:19:33.282Z,93.58
2023-02-09T01:22:20.274Z,93.60
2023-02-09T01:25:08.164Z,93.50
2023-02-09T01:27:54.556Z,93.23
2023-02-09T01:30:41.057Z,93.44
2023-02-09T01:33:27.809Z,93.54
2023-02-09T01:36:14.560Z,93.55
2023-02-09T01:39:03.946Z,93.67
2023-02-09T01:41:51.016Z,93.59
2023-02-09T01:44:37.392Z,93.71
2023-02-09T01:47:24.107Z,93.45
2023-02-09T01:50:11.750Z,93.37
2023-02-09T01:52:58.450Z,93.45
2023-02-09T01:55:53.008Z,93.33
2023-02-09T01:58:39.925Z,93.16
2023-02-09T02:01:26.865Z,92.87
2023-02-09T02:04:13.857Z,92.38
2023-02-09T02:07:09.628Z,91.99
2023-02-09T02:09:56.368Z,91.88
2023-02-09T02:12:43.796Z,91.50
2023-02-09T02:15:41.103Z,91.59
2023-02-09T02:18:48.872Z,91.47
2023-02-09T02:21:56.651Z,91.61
2023-02-09T02:24:43.279Z,91.31
2023-02-09T02:27:42.256Z,91.00
2023-02-09T02:30:55.130Z,90.61
2023-02-09T02:33:48.516Z,90.21
2023-02-09T02:36:52.294Z,89.85
2023-02-09T02:40:10.670Z,90.20
2023-02-09T02:43:07.599Z,89.94
2023-02-09T02:46:00.746Z,89.68
2023-02-09T02:49:10.628Z,89.47
2023-02-09T02:52:02.671Z,89.06
2023-02-09T02:55:00.915Z,88.86
2023-02-09T02:57:53.708Z,88.58
2023-02-09T03:00:46.996Z,88.15
2023-02-09T03:03:36.813Z,88.63
2023-02-09T03:06:23.425Z,88.38
2023-02-09T03:09:10.251Z,88.30
2023-02-09T03:12:14.087Z,88.31
2023-02-09T03:15:22.868Z,88.38
2023-02-09T03:18:12.446Z,88.27
2023-02-09T03:21:03.854Z,88.21
2023-02-09T03:24:24.806Z,87.98
2023-02-09T03:27:37.141Z,88.21
2023-02-09T03:30:25.139Z,88.21
2023-02-09T03:33:23.750Z,88.13
2023-02-09T03:36:16.951Z,88.03
2023-02-09T03:39:05.596Z,87.79
2023-02-09T03:41:52.158Z,87.74
2023-02-09T03:44:38.892Z,88.01
2023-02-09T03:47:25.406Z,87.84
2023-02-09T03:50:12.237Z,87.88
2023-02-09T03:52:59.696Z,87.86
2023-02-09T03:55:47.273Z,87.68
2023-02-09T03:58:36.209Z,87.91
2023-02-09T04:01:22.391Z,87.77
2023-02-09T04:04:08.848Z,87.50
2023-02-09T04:06:56.320Z,87.40
2023-02-09T04:09:42.678Z,87.70
2023-02-09T04:12:29.816Z,87.73
2023-02-09T04:15:16.446Z,87.48
2023-02-09T04:18:03.253Z,87.55
2023-02-09T04:20:49.787Z,87.82
2023-02-09T04:23:37.059Z,87.39
2023-02-09T04:26:24.056Z,87.29
2023-02-09T04:29:10.848Z,87.20
2023-02-09T04:31:57.779Z,87.01
2023-02-09T04:34:44.333Z,86.95
2023-02-09T04:37:31.135Z,87.33
2023-02-09T04:40:18.116Z,87.26
2023-02-09T04:43:04.777Z,87.15
2023-02-09T04:45:51.900Z,87.11
2023-02-09T04:48:38.672Z,87.34
2023-02-09T04:51:25.709Z,86.84
2023-02-09T04:54:12.100Z,86.84
2023-02-09T04:57:17.824Z,87.32
2023-02-09T05:00:05.121Z,87.55
2023-02-09T05:02:51.537Z,87.60
2023-02-09T05:05:42.260Z,87.53
2023-02-09T05:08:29.765Z,87.81
2023-02-09T05:11:17.828Z,88.27
2023-02-09T05:14:04.745Z,87.82
2023-02-09T05:16:51.594Z,87.65
2023-02-09T05:19:38.117Z,87.85
2023-02-09T05:22:25.046Z,88.04
2023-02-09T05:25:37.998Z,88.41
2023-02-09T05:28:25.289Z,88.33
2023-02-09T05:31:12.081Z,88.40
2023-02-09T05:34:01.286Z,88.19
2023-02-09T05:36:47.845Z,88.45
2023-02-09T05:39:34.178Z,88.44
2023-02-09T05:42:20.986Z,88.57
2023-02-09T05:45:08.814Z,88.74
2023-02-09T05:47:55.663Z,89.55
2023-02-09T05:50:42.335Z,89.69
2023-02-09T05:53:29.084Z,90.04
2023-02-09T05:56:15.887Z,90.38
2023-02-09T05:59:04.484Z,90.15
2023-02-09T06:01:51.646Z,90.51
2023-02-09T06:04:38.158Z,90.78
2023-02-09T06:07:27.306Z,91.25
2023-02-09T06:10:14.321Z,91.14
2023-02-09T06:13:01.004Z,91.32
2023-02-09T06:15:47.752Z,91.22
2023-02-09T06:18:34.486Z,91.37
2023-02-09T06:21:21.468Z,91.39
2023-02-09T06:24:08.285Z,91.27
2023-02-09T06:26:56.362Z,91.34
2023-02-09T06:29:42.950Z,91.37
2023-02-09T06:32:29.928Z,91.30
2023-02-09T06:35:16.493Z,91.19
2023-02-09T06:38:03.130Z,90.95
2023-02-09T06:40:51.944Z,91.16
2023-02-09T06:43:38.779Z,91.08
2023-02-09T06:46:26.466Z,91.12
2023-02-09T06:49:13.305Z,90.95
2023-02-09T06:52:00.124Z,90.37
2023-02-09T06:54:46.910Z,89.91
2023-02-09T06:57:34.883Z,89.64
2023-02-09T07:00:22.195Z,89.07
2023-02-09T07:03:11.240Z,88.42
2023-02-09T07:06:05.854Z,87.61
2023-02-09T07:08:52.773Z,87.26
2023-02-09T07:11:40.061Z,86.69
2023-02-09T07:14:29.054Z,85.60
2023-02-09T07:17:16.155Z,84.88
2023-02-09T07:20:04.339Z,84.50
2023-02-09T07:22:51.494Z,83.73
2023-02-09T07:25:38.827Z,84.05
2023-02-09T07:28:27.753Z,82.86
2023-02-09T07:31:16.549Z,82.27
2023-02-09T07:34:03.079Z,81.24
2023-02-09T07:36:50.000Z,80.12
2023-02-09T07:39:36.772Z,79.12
2023-02-09T07:42:23.861Z,78.78
2023-02-09T07:45:10.906Z,78.69
2023-02-09T07:47:57.696Z,78.57
2023-02-09T07:50:51.381Z,77.95
2023-02-09T07:53:38.440Z,76.57
2023-02-09T07:56:25.754Z,75.94
2023-02-09T07:59:12.123Z,75.47
2023-02-09T08:01:58.940Z,74.14
2023-02-09T08:04:46.776Z,74.59
2023-02-09T08:07:33.959Z,73.04
2023-02-09T08:10:20.883Z,72.78
2023-02-09T08:13:09.271Z,71.99
2023-02-09T08:16:04.990Z,72.06
2023-02-09T08:18:58.547Z,71.71
2023-02-09T08:21:48.898Z,71.19
2023-02-09T08:24:35.774Z,70.98
2023-02-09T08:27:23.235Z,71.60
2023-02-09T08:32:40.714Z,69.91
2023-02-09T08:35:30.748Z,68.68
2023-02-09T08:38:17.970Z,68.08
2023-02-09T08:41:10.160Z,68.06
2023-02-09T08:43:57.144Z,67.42
2023-02-09T08:46:46.931Z,67.07
2023-02-09T08:49:35.489Z,66.79
2023-02-09T08:52:23.727Z,67.48
2023-02-09T08:55:11.077Z,67.63
2023-02-09T08:57:57.857Z,67.50
2023-02-09T09:00:45.829Z,66.06
2023-02-09T09:03:33.453Z,63.60
2023-02-09T09:06:22.233Z,62.83
2023-02-09T09:09:09.081Z,62.46
2023-02-09T09:15:10.230Z,59.90
2023-02-09T09:17:56.942Z,60.36
2023-02-09T09:20:44.723Z,59.93
2023-02-09T09:23:31.480Z,61.58
2023-02-09T09:26:18.687Z,62.07
2023-02-09T09:29:05.528Z,62.33
2023-02-09T09:31:52.648Z,62.25
2023-02-09T09:34:41.540Z,60.71
2023-02-09T09:37:29.803Z,57.71
2023-02-09T09:40:29.852Z,57.40
2023-02-09T09:43:36.002Z,57.69
2023-02-09T09:46:37.231Z,57.12
2023-02-09T09:49:27.421Z,55.33
2023-02-09T09:52:17.599Z,54.17
2023-02-09T09:55:07.950Z,52.04
2023-02-09T09:58:03.030Z,49.93
2023-02-09T10:00:51.492Z,51.11
2023-02-09T10:03:38.113Z,49.93
2023-02-09T10:06:24.973Z,50.87
2023-02-09T10:09:37.123Z,50.88
2023-02-09T10:12:37.475Z,52.36
2023-02-09T10:15:31.528Z,51.43
2023-02-09T10:18:25.357Z,50.28
2023-02-09T10:21:16.407Z,48.94
2023-02-09T10:24:20.276Z,50.04
2023-02-09T10:27:13.306Z,49.66
2023-02-09T10:30:26.659Z,49.46
2023-02-09T10:33:16.198Z,47.22
2023-02-09T10:37:13.096Z,45.71
2023-02-09T10:39:41.815Z,45.63
2023-02-09T10:42:35.446Z,44.45
2023-02-09T10:45:32.245Z,44.09
2023-02-09T10:48:21.473Z,44.76
2023-02-09T10:51:16.056Z,44.59
2023-02-09T10:54:07.468Z,44.42
2023-02-09T10:56:53.956Z,43.29
2023-02-09T10:59:41.419Z,41.83
2023-02-09T11:02:41.999Z,40.58
2023-02-09T11:05:35.054Z,42.52
2023-02-09T11:08:24.473Z,43.35
2023-02-09T11:11:31.808Z,41.80
2023-02-09T11:14:20.300Z,41.76
2023-02-09T11:17:31.543Z,41.58
2023-02-09T11:20:44.158Z,40.85
2023-02-09T11:23:52.373Z,39.63
2023-02-09T11:26:47.870Z,39.07
2023-02-09T11:29:44.572Z,39.04
2023-02-09T11:32:54.685Z,38.50
2023-02-09T11:36:14.786Z,37.37
2023-02-09T11:39:12.049Z,36.07
2023-02-09T11:42:41.412Z,34.42
2023-02-09T11:45:33.977Z,35.04
2023-02-09T11:48:28.004Z,37.53
2023-02-09T11:51:19.702Z,38.01
2023-02-09T11:54:14.670Z,36.99
2023-02-09T11:57:07.798Z,35.81
2023-02-09T11:59:58.917Z,34.97
2023-02-09T12:02:59.209Z,33.88
2023-02-09T12:05:46.236Z,33.84
2023-02-09T12:08:55.101Z,34.65
2023-02-09T12:11:46.884Z,35.11
2023-02-09T12:15:24.608Z,34.29
2023-02-09T12:18:18.951Z,35.81
2023-02-09T12:21:07.328Z,37.82
2023-02-09T12:23:53.912Z,38.31
2023-02-09T12:26:44.279Z,39.20
2023-02-09T12:29:39.913Z,40.20
2023-02-09T12:32:42.943Z,40.49
2023-02-09T12:35:39.421Z,38.48
2023-02-09T12:38:49.555Z,37.69
2023-02-09T12:41:42.990Z,38.15
2023-02-09T12:44:29.614Z,40.08
2023-02-09T12:47:45.719Z,40.01
2023-02-09T12:50:35.311Z,40.60
2023-02-09T12:53:21.847Z,39.14
2023-02-09T12:56:11.463Z,39.84
2023-02-09T12:59:19.906Z,41.03
2023-02-09T13:02:06.670Z,40.19
2023-02-09T13:04:53.307Z,39.79
2023-02-09T13:08:15.947Z,39.54
2023-02-09T13:11:14.086Z,39.26
2023-02-09T13:14:07.469Z,39.32
2023-02-09T13:16:57.163Z,40.06
2023-02-09T13:20:11.869Z,40.94
2023-02-09T13:23:16.856Z,42.47
2023-02-09T13:26:26.010Z,43.16
2023-02-09T13:29:21.498Z,43.68
2023-02-09T13:32:17.666Z,44.09
2023-02-09T13:35:04.472Z,44.05
2023-02-09T13:37:59.564Z,43.06
2023-02-09T13:40:49.429Z,43.53
2023-02-09T13:43:39.250Z,43.08
2023-02-09T13:46:31.508Z,42.98
2023-02-09T13:49:21.904Z,42.24
2023-02-09T13:52:16.793Z,40.73
2023-02-09T13:55:19.188Z,40.67
2023-02-09T13:58:07.707Z,39.34
2023-02-09T14:01:15.753Z,38.33
2023-02-09T14:04:02.525Z,36.89
2023-02-09T14:06:52.099Z,36.47
2023-02-09T14:10:05.446Z,36.41
2023-02-09T14:13:14.878Z,34.62
2023-02-09T14:16:11.267Z,33.61
2023-02-09T14:20:21.762Z,32.97
2023-02-09T14:47:48.366Z,33.59
2023-02-09T15:01:42.474Z,37.02
2023-02-09T15:04:42.015Z,39.91
2023-02-09T15:07:35.616Z,42.34
2023-02-09T15:10:35.203Z,43.31
2023-02-09T15:13:23.600Z,44.62
2023-02-09T15:16:10.889Z,45.00
2023-02-09T15:18:58.016Z,45.07
2023-02-09T15:21:44.382Z,45.61
2023-02-09T15:24:32.242Z,45.93
2023-02-09T15:28:59.636Z,46.36
2023-02-09T15:31:47.626Z,47.22
2023-02-09T15:34:35.790Z,47.56
2023-02-09T15:37:31.814Z,47.69
2023-02-09T15:40:44.932Z,47.98
2023-02-09T15:43:51.929Z,48.30
2023-02-09T15:47:05.762Z,48.66
2023-02-09T15:49:52.536Z,48.85
2023-02-09T15:52:39.200Z,48.94
2023-02-09T15:55:27.245Z,48.96
2023-02-09T15:58:25.408Z,49.25
2023-02-09T16:01:16.935Z,49.55
2023-02-09T16:04:13.949Z,49.68
2023-02-09T16:07:03.655Z,50.00
2023-02-09T16:09:51.252Z,50.15
2023-02-09T16:12:38.119Z,50.39
2023-02-09T16:15:27.240Z,50.31
2023-02-09T16:18:14.756Z,50.37
2023-02-09T16:21:07.367Z,50.67
2023-02-09T16:23:59.291Z,50.91
2023-02-09T16:27:27.629Z,51.18
2023-02-09T16:30:20.566Z,51.03
2023-02-09T16:33:07.180Z,50.84
2023-02-09T16:35:57.187Z,50.87
2023-02-09T16:38:47.387Z,51.14
2023-02-09T16:41:48.325Z,51.79
2023-02-09T16:44:36.525Z,52.18
2023-02-09T16:47:28.692Z,52.30
2023-02-09T16:50:33.023Z,52.23
2023-02-09T16:53:32.903Z,52.29
2023-02-09T16:56:20.559Z,52.48
2023-02-09T16:59:12.790Z,52.66
2023-02-09T17:01:59.986Z,52.61
2023-02-09T17:04:46.619Z,52.78
2023-02-09T17:07:52.493Z,52.55
2023-02-09T17:10:40.719Z,52.91
2023-02-09T17:13:28.478Z,53.03
2023-02-09T17:16:54.172Z,53.01
2023-02-09T17:19:47.911Z,53.64
2023-02-09T17:22:33.970Z,53.31
2023-02-09T17:25:23.563Z,53.72
2023-02-09T17:28:27.350Z,54.15
2023-02-09T17:31:24.635Z,54.33
2023-02-09T17:34:16.283Z,54.73
2023-02-09T17:37:03.755Z,54.59
2023-02-09T17:39:50.039Z,54.88
2023-02-09T17:42:36.848Z,55.18
2023-02-09T17:45:26.896Z,55.33
2023-02-09T17:48:15.506Z,55.42
2023-02-09T17:52:16.726Z,55.75
2023-02-09T17:55:05.661Z,56.13
2023-02-09T17:57:57.453Z,56.13
2023-02-09T18:00:45.500Z,56.22
2023-02-09T18:03:31.070Z,56.49
2023-02-09T18:06:20.443Z,56.86
2023-02-09T18:09:12.678Z,56.84
2023-02-09T18:12:05.271Z,57.03
2023-02-09T18:16:19.878Z,57.33
2023-02-09T18:20:21.585Z,57.60
2023-02-09T18:23:13.686Z,58.19
2023-02-09T18:26:16.127Z,57.94
2023-02-09T18:29:31.838Z,57.98
2023-02-09T18:33:08.681Z,58.10
2023-02-09T19:00:29.943Z,58.39
2023-02-09T19:07:36.737Z,58.54
2023-02-09T20:24:45.470Z,59.25
2023-02-09T20:39:18.126Z,58.66
2023-02-09T20:43:07.486Z,59.20
2023-02-09T20:46:26.163Z,58.79
2023-02-09T21:01:32.368Z,59.22
2023-02-09T21:04:38.327Z,59.44
2023-02-09T21:07:56.806Z,59.38
2023-02-09T21:11:26.107Z,59.89
2023-02-09T21:15:57.747Z,59.37
2023-02-09T21:19:25.530Z,59.27
2023-02-09T22:02:15.504Z,59.35
2023-02-09T22:06:39.526Z,59.12
2023-02-09T22:22:09.241Z,59.13
2023-02-09T22:26:16.910Z,59.14
2023-02-09T22:30:13.366Z,59.65
2023-02-09T22:33:44.105Z,59.57
2023-02-09T22:37:00.936Z,59.69
2023-02-09T22:40:56.864Z,59.91
2023-02-09T22:45:16.730Z,60.14
2023-02-09T22:49:13.802Z,60.05
2023-02-09T22:52:35.553Z,59.80
2023-02-09T22:56:49.044Z,60.08
2023-02-09T23:06:07.982Z,60.04
2023-02-09T23:10:26.110Z,60.36
2023-02-09T23:13:52.843Z,60.67
2023-02-09T23:16:43.887Z,60.72
2023-02-09T23:19:30.723Z,60.65
2023-02-09T23:22:17.631Z,60.62
2023-02-09T23:25:04.108Z,60.78
2023-02-09T23:27:52.905Z,60.56
2023-02-09T23:31:07.881Z,60.29
2023-02-09T23:33:55.276Z,60.59
2023-02-09T23:36:42.026Z,60.60
2023-02-09T23:39:28.756Z,60.60
2023-02-09T23:42:16.433Z,60.55
2023-02-09T23:50:59.871Z,61.06
2023-02-09T23:53:47.715Z,60.81
2023-02-09T23:56:37.300Z,60.94
2023-02-09T23:59:24.057Z,61.19
